createdAt,value
2023-05-02T00:00:29.349Z,79.97
2023-05-02T00:02:56.019Z,80.05
2023-05-02T00:05:22.648Z,80.53
2023-05-02T00:07:49.442Z,80.33
2023-05-02T00:10:15.826Z,80.68
2023-05-02T00:12:42.149Z,80.28
2023-05-02T00:15:09.196Z,80.69
2023-05-02T00:17:35.807Z,81.05
2023-05-02T00:20:05.535Z,80.55
2023-05-02T00:22:32.276Z,80.88
2023-05-02T00:24:59.065Z,81.24
2023-05-02T00:27:25.453Z,81.25
2023-05-02T00:29:52.370Z,80.63
2023-05-02T00:32:18.930Z,80.46
2023-05-02T00:34:45.448Z,80.90
2023-05-02T00:37:11.903Z,80.09
2023-05-02T00:39:38.389Z,79.95
2023-05-02T00:42:04.954Z,80.36
2023-05-02T00:44:31.595Z,80.63
2023-05-02T00:47:01.639Z,80.36
2023-05-02T00:49:28.531Z,80.90
2023-05-02T00:51:55.074Z,81.81
2023-05-02T00:54:21.584Z,81.84
2023-05-02T00:56:48.413Z,82.43
2023-05-02T00:59:15.476Z,82.38
2023-05-02T01:02:00.604Z,82.76
2023-05-02T01:04:32.954Z,82.51
2023-05-02T01:07:22.308Z,82.78
2023-05-02T01:10:15.029Z,82.93
2023-05-02T01:13:00.632Z,82.80
2023-05-02T01:15:28.161Z,83.10
2023-05-02T01:17:56.475Z,83.38
2023-05-02T01:20:27.831Z,82.63
2023-05-02T01:22:58.277Z,82.53
2023-05-02T01:25:51.222Z,82.44
2023-05-02T01:28:34.713Z,82.56
2023-05-02T01:31:04.589Z,81.86
2023-05-02T01:33:32.840Z,81.61
2023-05-02T01:36:01.785Z,81.58
2023-05-02T01:38:29.461Z,80.38
2023-05-02T01:41:03.251Z,80.61
2023-05-02T01:43:31.870Z,80.72
2023-05-02T01:46:01.999Z,80.29
2023-05-02T01:48:28.965Z,81.03
2023-05-02T01:50:57.630Z,81.03
2023-05-02T01:53:28.155Z,80.79
2023-05-02T01:55:55.940Z,81.02
2023-05-02T01:58:23.554Z,81.51
2023-05-02T02:00:51.275Z,80.50
2023-05-02T02:03:18.912Z,81.19
2023-05-02T02:05:48.411Z,80.69
2023-05-02T02:08:14.798Z,80.42
2023-05-02T02:10:45.389Z,80.67
2023-05-02T02:13:26.336Z,80.49
2023-05-02T02:15:59.006Z,79.35
2023-05-02T02:18:27.798Z,79.88
2023-05-02T02:20:55.336Z,79.93
2023-05-02T02:23:26.766Z,80.21
2023-05-02T02:25:55.467Z,80.00
2023-05-02T02:28:21.815Z,79.75
2023-05-02T02:30:48.343Z,79.29
2023-05-02T02:33:14.854Z,79.25
2023-05-02T02:35:46.367Z,78.81
2023-05-02T02:38:37.955Z,79.29
2023-05-02T02:41:16.544Z,78.19
2023-05-02T02:44:00.317Z,78.75
2023-05-02T02:47:05.640Z,78.28
2023-05-02T02:49:44.377Z,77.64
2023-05-02T02:52:18.362Z,78.12
2023-05-02T02:55:15.077Z,76.93
2023-05-02T02:58:08.635Z,76.61
2023-05-02T03:00:36.067Z,77.37
2023-05-02T03:03:02.829Z,76.93
2023-05-02T03:05:33.327Z,77.60
2023-05-02T03:08:00.664Z,76.99
2023-05-02T03:10:27.034Z,76.85
2023-05-02T03:12:55.627Z,77.38
2023-05-02T03:15:49.757Z,77.23
2023-05-02T03:18:16.727Z,77.19
2023-05-02T03:20:43.344Z,77.21
2023-05-02T03:23:09.998Z,77.53
2023-05-02T03:25:36.930Z,77.37
2023-05-02T03:28:03.478Z,77.01
2023-05-02T03:30:29.902Z,77.14
2023-05-02T03:32:57.132Z,77.42
2023-05-02T03:35:23.533Z,77.57
2023-05-02T03:37:50.658Z,77.28
2023-05-02T03:40:21.508Z,77.11
2023-05-02T03:42:47.882Z,77.30
2023-05-02T03:45:14.490Z,78.11
2023-05-02T03:47:40.985Z,78.13
2023-05-02T03:50:08.013Z,77.95
2023-05-02T03:52:34.412Z,78.41
2023-05-02T03:55:01.729Z,77.82
2023-05-02T03:57:31.222Z,78.16
2023-05-02T03:59:57.844Z,78.44
2023-05-02T04:02:25.328Z,79.08
2023-05-02T04:04:52.089Z,79.02
2023-05-02T04:07:19.369Z,78.36
2023-05-02T04:09:46.066Z,78.80
2023-05-02T04:12:12.932Z,78.81
2023-05-02T04:14:39.309Z,78.88
2023-05-02T04:17:06.623Z,78.04
2023-05-02T04:19:34.445Z,77.83
2023-05-02T04:22:02.786Z,76.55
2023-05-02T04:24:29.619Z,76.25
2023-05-02T04:26:56.092Z,76.65
2023-05-02T04:29:22.407Z,75.66
2023-05-02T04:31:49.180Z,75.44
2023-05-02T04:34:15.572Z,75.87
2023-05-02T04:36:42.007Z,75.67
2023-05-02T04:39:08.414Z,77.01
2023-05-02T04:41:34.820Z,76.58
2023-05-02T04:44:01.191Z,76.42
2023-05-02T04:46:36.844Z,75.99
2023-05-02T04:49:03.298Z,75.82
2023-05-02T04:51:31.714Z,75.75
2023-05-02T04:53:58.112Z,75.93
2023-05-02T04:56:24.446Z,75.03
2023-05-02T04:58:51.406Z,75.81
2023-05-02T05:01:18.149Z,76.34
2023-05-02T05:03:44.837Z,75.65
2023-05-02T05:06:12.530Z,74.46
2023-05-02T05:08:42.444Z,75.66
2023-05-02T05:11:08.808Z,74.52
2023-05-02T05:13:35.852Z,74.71
2023-05-02T05:16:02.911Z,75.16
2023-05-02T05:18:29.334Z,75.01
2023-05-02T05:20:55.757Z,74.35
2023-05-02T05:23:22.338Z,74.00
2023-05-02T05:25:48.765Z,74.15
2023-05-02T05:28:15.206Z,73.52
2023-05-02T05:30:41.602Z,73.52
2023-05-02T05:33:08.079Z,73.45
2023-05-02T05:35:34.457Z,73.88
2023-05-02T05:38:00.982Z,74.33
2023-05-02T05:40:27.618Z,73.21
2023-05-02T05:42:53.991Z,73.44
2023-05-02T05:45:20.414Z,73.39
2023-05-02T05:47:46.905Z,73.54
2023-05-02T05:50:13.298Z,72.69
2023-05-02T05:52:39.777Z,73.08
2023-05-02T05:55:06.747Z,72.98
2023-05-02T05:57:33.107Z,73.55
2023-05-02T05:59:59.775Z,73.21
2023-05-02T06:02:26.424Z,72.99
2023-05-02T06:04:52.935Z,71.98
2023-05-02T06:07:19.297Z,71.17
2023-05-02T06:09:45.660Z,72.20
2023-05-02T06:12:16.395Z,71.35
2023-05-02T06:14:42.952Z,71.51
2023-05-02T06:17:09.371Z,71.08
2023-05-02T06:19:35.838Z,71.18
2023-05-02T06:22:02.310Z,71.39
2023-05-02T06:24:28.751Z,71.18
2023-05-02T06:26:55.183Z,71.13
2023-05-02T06:29:21.510Z,70.80
2023-05-02T06:31:47.963Z,70.13
2023-05-02T06:34:14.362Z,70.72
2023-05-02T06:36:40.729Z,70.43
2023-05-02T06:39:07.267Z,69.19
2023-05-02T06:41:33.731Z,69.22
2023-05-02T06:44:00.794Z,69.07
2023-05-02T06:46:30.607Z,69.17
2023-05-02T06:48:57.209Z,69.06
2023-05-02T06:51:27.663Z,69.71
2023-05-02T06:53:54.010Z,69.62
2023-05-02T06:56:20.401Z,69.64
2023-05-02T06:58:46.741Z,69.81
2023-05-02T07:01:13.194Z,69.10
2023-05-02T07:03:39.753Z,69.81
2023-05-02T07:06:06.263Z,69.80
2023-05-02T07:08:33.955Z,70.19
2023-05-02T07:11:00.391Z,70.47
2023-05-02T07:13:28.510Z,70.26
2023-05-02T07:15:55.284Z,70.40
2023-05-02T07:18:21.883Z,70.69
2023-05-02T07:20:48.443Z,70.53
2023-05-02T07:23:14.843Z,70.46
2023-05-02T07:25:41.238Z,70.67
2023-05-02T07:28:08.054Z,70.64
2023-05-02T07:30:34.499Z,70.17
2023-05-02T07:33:00.972Z,70.54
2023-05-02T07:35:27.586Z,69.89
2023-05-02T07:37:53.993Z,69.01
2023-05-02T07:40:20.701Z,69.08
2023-05-02T07:42:47.134Z,69.83
2023-05-02T07:45:13.668Z,69.73
2023-05-02T07:47:40.191Z,69.43
2023-05-02T07:50:07.021Z,68.95
2023-05-02T07:52:33.438Z,68.82
2023-05-02T07:54:59.834Z,67.76
2023-05-02T07:57:26.927Z,68.05
2023-05-02T07:59:53.420Z,67.36
2023-05-02T08:02:20.743Z,67.30
2023-05-02T08:04:47.988Z,66.83
2023-05-02T08:07:14.512Z,66.69
2023-05-02T08:09:40.947Z,67.23
2023-05-02T08:12:07.395Z,66.56
2023-05-02T08:14:33.934Z,67.33
2023-05-02T08:17:01.218Z,66.61
2023-05-02T08:19:27.946Z,66.94
2023-05-02T08:21:54.739Z,67.20
2023-05-02T08:24:21.752Z,66.86
2023-05-02T08:26:48.093Z,65.38
2023-05-02T08:29:14.473Z,65.17
2023-05-02T08:31:41.250Z,64.58
2023-05-02T08:34:07.880Z,64.08
2023-05-02T08:36:34.456Z,63.29
2023-05-02T08:39:00.819Z,62.23
2023-05-02T08:41:29.166Z,62.52
2023-05-02T08:43:56.878Z,60.98
2023-05-02T08:46:28.957Z,62.39
2023-05-02T08:48:58.874Z,62.00
2023-05-02T08:51:25.875Z,62.07
2023-05-02T08:53:52.383Z,61.90
2023-05-02T08:56:19.705Z,60.29
2023-05-02T08:58:46.175Z,60.00
2023-05-02T09:01:19.638Z,59.95
2023-05-02T09:03:47.573Z,59.33
2023-05-02T09:06:19.126Z,57.52
2023-05-02T09:08:50.488Z,57.35
2023-05-02T09:11:17.368Z,57.08
2023-05-02T09:13:48.337Z,56.67
2023-05-02T09:16:17.878Z,58.57
2023-05-02T09:18:49.736Z,57.22
2023-05-02T09:21:25.129Z,56.72
2023-05-02T09:23:53.609Z,55.63
2023-05-02T09:26:31.090Z,55.89
2023-05-02T09:28:59.722Z,55.21
2023-05-02T09:31:49.884Z,54.68
2023-05-02T09:34:17.674Z,53.17
2023-05-02T09:36:53.915Z,52.91
2023-05-02T09:39:26.070Z,53.26
2023-05-02T09:41:54.120Z,51.84
2023-05-02T09:44:23.616Z,51.86
2023-05-02T09:46:55.403Z,51.08
2023-05-02T09:49:45.439Z,51.33
2023-05-02T09:52:17.509Z,50.83
2023-05-02T09:54:44.287Z,51.67
2023-05-02T09:57:11.495Z,50.58
2023-05-02T09:59:39.467Z,50.05
2023-05-02T10:02:07.509Z,50.87
2023-05-02T10:04:34.645Z,48.51
2023-05-02T10:07:03.359Z,49.51
2023-05-02T10:09:32.648Z,49.57
2023-05-02T10:12:03.753Z,50.02
2023-05-02T10:14:31.629Z,50.00
2023-05-02T10:17:21.515Z,49.85
2023-05-02T10:20:07.378Z,50.27
2023-05-02T10:22:34.572Z,50.30
2023-05-02T10:25:03.174Z,49.50
2023-05-02T10:27:30.481Z,50.86
2023-05-02T10:29:58.761Z,48.19
2023-05-02T10:32:28.686Z,49.45
2023-05-02T10:34:57.463Z,48.75
2023-05-02T10:37:25.645Z,50.54
2023-05-02T10:39:52.275Z,48.39
2023-05-02T10:42:20.651Z,47.83
2023-05-02T10:44:47.278Z,48.79
2023-05-02T10:47:26.977Z,48.91
2023-05-02T10:50:00.348Z,47.15
2023-05-02T10:52:41.443Z,47.16
2023-05-02T10:55:18.086Z,48.80
2023-05-02T10:58:00.473Z,47.51
2023-05-02T11:00:27.047Z,47.75
2023-05-02T11:02:54.731Z,48.21
2023-05-02T11:05:24.879Z,48.57
2023-05-02T11:08:19.252Z,48.23
2023-05-02T11:10:47.264Z,48.11
2023-05-02T11:13:13.780Z,47.92
2023-05-02T11:15:40.114Z,46.63
2023-05-02T11:18:14.328Z,46.02
2023-05-02T11:20:42.965Z,47.29
2023-05-02T11:23:15.856Z,46.88
2023-05-02T11:26:09.846Z,46.95
2023-05-02T11:28:41.732Z,46.72
2023-05-02T11:31:10.864Z,45.91
2023-05-02T11:33:37.411Z,46.35
2023-05-02T11:36:04.148Z,46.42
2023-05-02T11:38:38.311Z,46.17
2023-05-02T11:41:05.151Z,46.39
2023-05-02T11:43:32.612Z,46.46
2023-05-02T11:46:01.757Z,46.46
2023-05-02T11:48:30.033Z,45.95
2023-05-02T11:51:05.667Z,46.99
2023-05-02T11:53:40.748Z,47.44
2023-05-02T11:56:07.419Z,47.22
2023-05-02T11:58:34.252Z,46.98
2023-05-02T12:01:15.918Z,46.64
2023-05-02T12:03:42.730Z,45.32
2023-05-02T12:06:14.366Z,45.23
2023-05-02T12:08:43.330Z,46.81
2023-05-02T12:11:09.890Z,46.11
2023-05-02T12:13:45.006Z,45.38
2023-05-02T12:16:11.670Z,45.22
2023-05-02T12:18:38.452Z,46.25
2023-05-02T12:21:05.841Z,45.94
2023-05-02T12:23:33.641Z,44.68
2023-05-02T12:26:15.856Z,45.68
2023-05-02T12:28:57.296Z,46.28
2023-05-02T12:31:24.353Z,45.62
2023-05-02T12:33:52.659Z,45.17
2023-05-02T12:36:19.777Z,45.17
2023-05-02T12:38:55.124Z,45.49
2023-05-02T12:41:51.787Z,46.64
2023-05-02T12:44:35.678Z,45.72
2023-05-02T12:47:05.336Z,44.60
2023-05-02T12:49:31.763Z,44.56
2023-05-02T12:51:58.256Z,44.10
2023-05-02T12:54:28.446Z,44.79
2023-05-02T12:56:54.960Z,43.84
2023-05-02T12:59:28.736Z,45.46
2023-05-02T13:01:56.055Z,45.03
2023-05-02T13:04:22.706Z,44.37
2023-05-02T13:06:49.320Z,43.94
2023-05-02T13:09:16.957Z,45.37
2023-05-02T13:11:43.831Z,46.17
2023-05-02T13:14:11.544Z,42.96
2023-05-02T13:16:38.204Z,42.96
2023-05-02T13:19:08.408Z,43.95
2023-05-02T13:21:35.009Z,43.40
2023-05-02T13:24:04.004Z,44.26
2023-05-02T13:26:33.508Z,44.58
2023-05-02T13:29:00.001Z,44.16
2023-05-02T13:31:26.508Z,43.58
2023-05-02T13:33:53.401Z,43.54
2023-05-02T13:36:19.906Z,43.90
2023-05-02T13:38:46.629Z,43.89
2023-05-02T13:41:13.130Z,44.10
2023-05-02T13:43:40.595Z,43.57
2023-05-02T13:46:06.993Z,44.37
2023-05-02T13:48:33.528Z,43.40
2023-05-02T13:50:59.970Z,44.37
2023-05-02T13:53:26.490Z,44.59
2023-05-02T13:55:52.843Z,43.46
2023-05-02T13:58:22.218Z,43.20
2023-05-02T14:00:49.056Z,43.40
2023-05-02T14:03:16.016Z,43.53
2023-05-02T14:05:43.756Z,42.95
2023-05-02T14:08:11.114Z,43.89
2023-05-02T14:10:38.499Z,43.57
2023-05-02T14:13:05.335Z,45.00
2023-05-02T14:15:31.746Z,44.68
2023-05-02T14:17:58.337Z,44.21
2023-05-02T14:20:24.859Z,43.55
2023-05-02T14:22:51.365Z,44.62
2023-05-02T14:25:19.786Z,43.82
2023-05-02T14:27:46.947Z,43.61
2023-05-02T14:30:13.500Z,45.75
2023-05-02T14:32:46.282Z,44.04
2023-05-02T14:35:12.733Z,43.43
2023-05-02T14:37:39.673Z,44.08
2023-05-02T14:40:06.875Z,43.20
2023-05-02T14:42:33.530Z,43.96
2023-05-02T14:45:02.267Z,44.74
2023-05-02T14:47:31.004Z,44.48
2023-05-02T14:49:57.415Z,44.91
2023-05-02T14:52:23.854Z,43.46
2023-05-02T14:54:50.410Z,42.96
2023-05-02T14:57:16.960Z,43.37
2023-05-02T14:59:43.586Z,42.42
2023-05-02T15:02:10.273Z,42.79
2023-05-02T15:04:37.071Z,44.35
2023-05-02T15:07:06.815Z,42.80
2023-05-02T15:09:33.297Z,42.38
2023-05-02T15:11:59.729Z,42.51
2023-05-02T15:14:26.253Z,42.82
2023-05-02T15:16:52.693Z,43.05
2023-05-02T15:19:19.282Z,43.35
2023-05-02T15:21:45.693Z,43.28
2023-05-02T15:24:12.059Z,43.06
2023-05-02T15:26:40.332Z,43.35
2023-05-02T15:29:06.995Z,42.95
2023-05-02T15:31:36.449Z,43.41
2023-05-02T15:34:03.380Z,43.27
2023-05-02T15:36:30.372Z,44.43
2023-05-02T15:38:57.090Z,41.47
2023-05-02T15:41:28.549Z,42.88
2023-05-02T15:43:55.097Z,42.77
2023-05-02T15:46:24.619Z,43.38
2023-05-02T15:48:51.245Z,43.61
2023-05-02T15:51:17.935Z,44.88
2023-05-02T15:53:47.881Z,44.87
2023-05-02T15:56:14.382Z,44.00
2023-05-02T15:58:40.755Z,43.07
2023-05-02T16:01:09.929Z,44.79
2023-05-02T16:03:36.874Z,43.87
2023-05-02T16:06:06.342Z,43.25
2023-05-02T16:08:33.033Z,44.66
2023-05-02T16:11:01.365Z,44.75
2023-05-02T16:13:27.923Z,44.31
2023-05-02T16:15:57.644Z,46.04
2023-05-02T16:18:28.237Z,44.68
2023-05-02T16:20:58.249Z,44.29
2023-05-02T16:23:25.886Z,44.79
2023-05-02T16:25:59.298Z,44.99
2023-05-02T16:28:48.441Z,46.46
2023-05-02T16:31:15.124Z,45.80
2023-05-02T16:33:42.777Z,45.77
2023-05-02T16:36:09.760Z,45.48
2023-05-02T16:38:38.372Z,45.26
2023-05-02T16:41:06.901Z,46.35
2023-05-02T16:43:33.578Z,45.85
2023-05-02T16:46:06.859Z,45.59
2023-05-02T16:48:34.680Z,45.92
2023-05-02T16:51:04.083Z,45.35
2023-05-02T16:53:32.376Z,45.21
2023-05-02T16:55:59.624Z,45.89
2023-05-02T16:58:28.925Z,46.10
2023-05-02T17:00:56.121Z,46.68
2023-05-02T17:03:22.875Z,46.13
2023-05-02T17:05:49.478Z,46.91
2023-05-02T17:08:16.924Z,46.50
2023-05-02T17:10:48.415Z,46.51
2023-05-02T17:13:14.894Z,47.61
2023-05-02T17:15:41.419Z,47.69
2023-05-02T17:18:08.089Z,48.00
2023-05-02T17:20:34.694Z,48.10
2023-05-02T17:23:02.213Z,46.85
2023-05-02T17:25:28.618Z,46.16
2023-05-02T17:27:55.578Z,47.41
2023-05-02T17:30:22.144Z,46.97
2023-05-02T17:32:48.558Z,47.02
2023-05-02T17:35:16.341Z,47.77
2023-05-02T17:37:43.574Z,47.66
2023-05-02T17:40:10.971Z,48.43
2023-05-02T17:42:37.386Z,48.93
2023-05-02T17:45:04.961Z,48.65
2023-05-02T17:47:31.435Z,47.73
2023-05-02T17:50:04.442Z,47.94
2023-05-02T17:52:35.493Z,48.89
2023-05-02T17:55:02.127Z,48.73
2023-05-02T17:57:28.911Z,48.81
2023-05-02T17:59:59.641Z,49.53
2023-05-02T18:02:29.989Z,49.26
2023-05-02T18:04:57.929Z,49.76
2023-05-02T18:07:24.529Z,49.80
2023-05-02T18:09:54.394Z,49.51
2023-05-02T18:12:20.881Z,49.96
2023-05-02T18:14:47.438Z,49.60
2023-05-02T18:17:14.042Z,50.48
2023-05-02T18:19:41.185Z,51.41
2023-05-02T18:22:07.631Z,51.06
2023-05-02T18:24:34.112Z,50.72
2023-05-02T18:27:00.542Z,50.67
2023-05-02T18:29:26.994Z,50.42
2023-05-02T18:31:53.925Z,50.60
2023-05-02T18:34:20.549Z,50.75
2023-05-02T18:36:47.010Z,50.79
2023-05-02T18:39:14.219Z,51.33
2023-05-02T18:41:40.631Z,51.90
2023-05-02T18:44:09.950Z,52.36
2023-05-02T18:46:36.363Z,52.13
2023-05-02T18:49:05.050Z,52.39
2023-05-02T18:51:31.815Z,53.02
2023-05-02T18:53:58.221Z,52.63
2023-05-02T18:56:25.325Z,53.89
2023-05-02T18:58:56.634Z,53.66
2023-05-02T19:01:23.932Z,54.87
2023-05-02T19:03:52.435Z,54.23
2023-05-02T19:06:19.225Z,54.50
2023-05-02T19:08:46.970Z,54.17
2023-05-02T19:11:13.813Z,54.80
2023-05-02T19:13:40.586Z,55.29
2023-05-02T19:16:12.528Z,55.93
2023-05-02T19:18:40.663Z,55.21
2023-05-02T19:21:12.397Z,56.39
2023-05-02T19:23:43.182Z,56.12
2023-05-02T19:26:14.146Z,56.67
2023-05-02T19:28:40.769Z,55.99
2023-05-02T19:31:09.363Z,55.53
2023-05-02T19:33:39.506Z,55.83
2023-05-02T19:36:07.416Z,56.18
2023-05-02T19:38:34.962Z,56.84
2023-05-02T19:41:02.081Z,56.39
2023-05-02T19:43:28.590Z,56.21
2023-05-02T19:45:55.192Z,56.84
2023-05-02T19:48:22.847Z,57.10
2023-05-02T19:50:49.786Z,57.00
2023-05-02T19:53:16.206Z,57.19
2023-05-02T19:55:42.696Z,56.72
2023-05-02T19:58:09.483Z,56.90
2023-05-02T20:00:35.984Z,57.57
2023-05-02T20:03:03.252Z,58.08
2023-05-02T20:05:30.112Z,58.40
2023-05-02T20:07:56.654Z,58.43
2023-05-02T20:10:23.085Z,58.10
2023-05-02T20:12:49.487Z,59.42
2023-05-02T20:15:19.031Z,59.49
2023-05-02T20:17:45.676Z,58.46
2023-05-02T20:20:12.494Z,59.32
2023-05-02T20:22:41.527Z,59.02
2023-05-02T20:25:09.181Z,59.11
2023-05-02T20:27:35.509Z,59.03
2023-05-02T20:30:02.213Z,59.19
2023-05-02T20:32:28.917Z,59.92
2023-05-02T20:34:55.522Z,59.70
2023-05-02T20:37:25.616Z,59.43
2023-05-02T20:39:52.061Z,60.49
2023-05-02T20:42:23.249Z,59.79
2023-05-02T20:44:57.218Z,59.77
2023-05-02T20:47:26.225Z,59.70
2023-05-02T20:49:53.084Z,59.50
2023-05-02T20:52:20.072Z,60.20
2023-05-02T20:54:47.690Z,61.16
2023-05-02T20:57:15.415Z,60.93
2023-05-02T20:59:43.379Z,60.35
2023-05-02T21:02:10.809Z,60.76
2023-05-02T21:04:37.349Z,60.62
2023-05-02T21:07:03.912Z,61.09
2023-05-02T21:09:30.729Z,61.00
2023-05-02T21:11:57.054Z,61.00
2023-05-02T21:14:24.584Z,61.74
2023-05-02T21:16:52.408Z,62.25
2023-05-02T21:19:19.689Z,62.04
2023-05-02T21:21:47.182Z,61.46
2023-05-02T21:24:13.657Z,61.53
2023-05-02T21:26:43.070Z,62.10
2023-05-02T21:29:10.859Z,62.12
2023-05-02T21:31:39.366Z,62.60
2023-05-02T21:34:06.118Z,62.80
2023-05-02T21:36:32.683Z,62.79
2023-05-02T21:38:59.147Z,62.79
2023-05-02T21:41:28.069Z,62.30
2023-05-02T21:43:54.466Z,62.84
2023-05-02T21:46:21.041Z,62.82
2023-05-02T21:48:47.442Z,63.13
2023-05-02T21:51:14.118Z,63.33
2023-05-02T21:53:40.971Z,62.90
2023-05-02T21:56:08.141Z,63.59
2023-05-02T21:58:37.613Z,63.70
2023-05-02T22:01:05.707Z,63.56
2023-05-02T22:03:36.483Z,63.31
2023-05-02T22:06:06.234Z,63.99
2023-05-02T22:08:33.268Z,63.75
2023-05-02T22:10:59.723Z,64.36
2023-05-02T22:13:26.215Z,64.50
2023-05-02T22:15:55.027Z,64.28
2023-05-02T22:18:21.473Z,64.44
2023-05-02T22:20:50.700Z,65.17
2023-05-02T22:23:17.147Z,64.12
2023-05-02T22:25:46.203Z,65.02
2023-05-02T22:28:13.639Z,63.96
2023-05-02T22:30:42.891Z,64.61
2023-05-02T22:33:09.457Z,64.58
2023-05-02T22:35:37.764Z,64.89
2023-05-02T22:38:10.909Z,65.09
2023-05-02T22:40:37.370Z,65.40
2023-05-02T22:43:03.883Z,65.60
2023-05-02T22:45:30.554Z,66.03
2023-05-02T22:47:57.150Z,65.87
2023-05-02T22:50:24.522Z,65.71
2023-05-02T22:52:51.092Z,65.74
2023-05-02T22:55:17.572Z,65.35
2023-05-02T22:57:44.085Z,65.75
2023-05-02T23:00:11.150Z,66.02
2023-05-02T23:02:38.331Z,66.17
2023-05-02T23:05:06.420Z,66.30
2023-05-02T23:07:33.141Z,66.48
2023-05-02T23:10:02.551Z,65.76
2023-05-02T23:12:29.248Z,66.31
2023-05-02T23:14:55.645Z,66.88
2023-05-02T23:17:22.245Z,66.95
2023-05-02T23:19:50.012Z,67.39
2023-05-02T23:22:16.547Z,67.62
2023-05-02T23:24:48.894Z,67.43
2023-05-02T23:27:15.466Z,67.55
2023-05-02T23:29:41.859Z,67.59
2023-05-02T23:32:08.452Z,68.01
2023-05-02T23:34:38.338Z,68.51
2023-05-02T23:37:07.146Z,68.18
2023-05-02T23:39:34.186Z,68.42
2023-05-02T23:42:03.535Z,68.25
2023-05-02T23:44:30.753Z,68.44
2023-05-02T23:46:58.720Z,68.04
2023-05-02T23:49:25.937Z,67.83
2023-05-02T23:51:52.381Z,68.23
2023-05-02T23:54:18.755Z,68.17
2023-05-02T23:56:46.170Z,68.42
2023-05-02T23:59:12.588Z,68.31
